sensor_id;sensor_type;location;lat;lon;timestamp;P1;durP1;ratioP1;P2;durP2;ratioP2
19739;SDS011;10027;51.066;13.768;2022-10-16T00:00:38;10.80;;;7.60;;
19739;SDS011;10027;51.066;13.768;2022-10-16T00:03:05;11.23;;;7.63;;
19739;SDS011;10027;51.066;13.768;2022-10-16T00:05:33;12.10;;;8.10;;
19739;SDS011;10027;51.066;13.768;2022-10-16T00:08:04;11.53;;;7.47;;
19739;SDS011;10027;51.066;13.768;2022-10-16T00:10:31;10.67;;;7.67;;
19739;SDS011;10027;51.066;13.768;2022-10-16T00:12:58;9.70;;;7.50;;
19739;SDS011;10027;51.066;13.768;2022-10-16T00:15:25;9.10;;;7.23;;
19739;SDS011;10027;51.066;13.768;2022-10-16T00:17:52;10.77;;;6.93;;
19739;SDS011;10027;51.066;13.768;2022-10-16T00:20:20;10.73;;;7.07;;
19739;SDS011;10027;51.066;13.768;2022-10-16T00:22:47;9.23;;;7.10;;
19739;SDS011;10027;51.066;13.768;2022-10-16T00:25:14;9.77;;;6.93;;
19739;SDS011;10027;51.066;13.768;2022-10-16T00:27:41;9.97;;;6.77;;
19739;SDS011;10027;51.066;13.768;2022-10-16T00:30:08;9.57;;;6.93;;
19739;SDS011;10027;51.066;13.768;2022-10-16T00:32:35;10.53;;;7.33;;
19739;SDS011;10027;51.066;13.768;2022-10-16T00:35:02;12.43;;;7.07;;
19739;SDS011;10027;51.066;13.768;2022-10-16T00:37:29;7.73;;;6.40;;
19739;SDS011;10027;51.066;13.768;2022-10-16T00:39:56;8.57;;;6.47;;
19739;SDS011;10027;51.066;13.768;2022-10-16T00:42:24;9.10;;;6.67;;
19739;SDS011;10027;51.066;13.768;2022-10-16T00:47:20;8.10;;;6.67;;
19739;SDS011;10027;51.066;13.768;2022-10-16T00:49:48;8.53;;;6.73;;
19739;SDS011;10027;51.066;13.768;2022-10-16T00:52:16;9.33;;;6.60;;
19739;SDS011;10027;51.066;13.768;2022-10-16T00:54:44;8.80;;;6.80;;
19739;SDS011;10027;51.066;13.768;2022-10-16T00:57:12;7.60;;;6.27;;
19739;SDS011;10027;51.066;13.768;2022-10-16T00:59:41;10.57;;;6.63;;
19739;SDS011;10027;51.066;13.768;2022-10-16T01:02:10;8.93;;;6.77;;
19739;SDS011;10027;51.066;13.768;2022-10-16T01:04:41;7.67;;;6.40;;
19739;SDS011;10027;51.066;13.768;2022-10-16T01:12:42;8.77;;;6.20;;
19739;SDS011;10027;51.066;13.768;2022-10-16T01:17:45;8.80;;;6.43;;
19739;SDS011;10027;51.066;13.768;2022-10-16T01:20:31;7.80;;;6.27;;
19739;SDS011;10027;51.066;13.768;2022-10-16T01:23:07;8.23;;;6.50;;
19739;SDS011;10027;51.066;13.768;2022-10-16T01:28:21;8.50;;;6.57;;
19739;SDS011;10027;51.066;13.768;2022-10-16T01:30:50;9.77;;;6.07;;
19739;SDS011;10027;51.066;13.768;2022-10-16T01:33:30;7.13;;;5.83;;
19739;SDS011;10027;51.066;13.768;2022-10-16T01:36:02;11.50;;;6.63;;
19739;SDS011;10027;51.066;13.768;2022-10-16T01:38:37;9.90;;;6.33;;
19739;SDS011;10027;51.066;13.768;2022-10-16T01:41:09;9.73;;;6.77;;
19739;SDS011;10027;51.066;13.768;2022-10-16T01:43:38;8.07;;;6.63;;
19739;SDS011;10027;51.066;13.768;2022-10-16T01:46:07;7.33;;;6.03;;
19739;SDS011;10027;51.066;13.768;2022-10-16T01:48:36;7.90;;;6.40;;
19739;SDS011;10027;51.066;13.768;2022-10-16T01:51:05;8.20;;;6.63;;
19739;SDS011;10027;51.066;13.768;2022-10-16T01:53:33;9.87;;;6.90;;
19739;SDS011;10027;51.066;13.768;2022-10-16T01:56:00;10.67;;;6.73;;
19739;SDS011;10027;51.066;13.768;2022-10-16T01:58:28;7.47;;;6.30;;
19739;SDS011;10027;51.066;13.768;2022-10-16T02:01:01;9.80;;;7.43;;
19739;SDS011;10027;51.066;13.768;2022-10-16T02:03:28;9.13;;;7.03;;
19739;SDS011;10027;51.066;13.768;2022-10-16T02:05:56;10.57;;;7.67;;
19739;SDS011;10027;51.066;13.768;2022-10-16T02:08:24;10.40;;;7.73;;
19739;SDS011;10027;51.066;13.768;2022-10-16T02:10:57;10.00;;;7.20;;
19739;SDS011;10027;51.066;13.768;2022-10-16T02:13:33;11.00;;;7.27;;
19739;SDS011;10027;51.066;13.768;2022-10-16T02:16:02;11.27;;;7.90;;
19739;SDS011;10027;51.066;13.768;2022-10-16T02:18:29;12.03;;;7.90;;
19739;SDS011;10027;51.066;13.768;2022-10-16T02:21:01;11.57;;;7.73;;
19739;SDS011;10027;51.066;13.768;2022-10-16T02:23:33;10.83;;;8.10;;
19739;SDS011;10027;51.066;13.768;2022-10-16T02:26:03;9.87;;;7.43;;
19739;SDS011;10027;51.066;13.768;2022-10-16T02:28:39;11.57;;;7.77;;
19739;SDS011;10027;51.066;13.768;2022-10-16T02:31:08;10.57;;;8.03;;
19739;SDS011;10027;51.066;13.768;2022-10-16T02:33:38;12.27;;;8.33;;
19739;SDS011;10027;51.066;13.768;2022-10-16T02:36:06;11.17;;;8.03;;
19739;SDS011;10027;51.066;13.768;2022-10-16T02:38:34;11.07;;;8.00;;
19739;SDS011;10027;51.066;13.768;2022-10-16T02:41:01;10.20;;;8.10;;
19739;SDS011;10027;51.066;13.768;2022-10-16T02:43:28;11.77;;;8.27;;
19739;SDS011;10027;51.066;13.768;2022-10-16T02:45:56;11.90;;;8.27;;
19739;SDS011;10027;51.066;13.768;2022-10-16T02:48:23;12.90;;;7.97;;
19739;SDS011;10027;51.066;13.768;2022-10-16T02:50:50;11.97;;;7.97;;
19739;SDS011;10027;51.066;13.768;2022-10-16T02:53:17;9.77;;;7.67;;
19739;SDS011;10027;51.066;13.768;2022-10-16T02:55:44;10.03;;;8.13;;
19739;SDS011;10027;51.066;13.768;2022-10-16T02:58:11;12.13;;;7.83;;
19739;SDS011;10027;51.066;13.768;2022-10-16T03:00:38;11.67;;;7.70;;
19739;SDS011;10027;51.066;13.768;2022-10-16T03:03:05;11.33;;;7.70;;
19739;SDS011;10027;51.066;13.768;2022-10-16T03:05:32;10.93;;;8.00;;
19739;SDS011;10027;51.066;13.768;2022-10-16T03:07:59;10.07;;;7.90;;
19739;SDS011;10027;51.066;13.768;2022-10-16T03:10:27;10.83;;;7.37;;
19739;SDS011;10027;51.066;13.768;2022-10-16T03:12:54;9.30;;;6.97;;
19739;SDS011;10027;51.066;13.768;2022-10-16T03:15:21;9.23;;;7.00;;
19739;SDS011;10027;51.066;13.768;2022-10-16T03:17:48;11.50;;;7.73;;
19739;SDS011;10027;51.066;13.768;2022-10-16T03:20:15;8.47;;;6.87;;
19739;SDS011;10027;51.066;13.768;2022-10-16T03:22:42;8.30;;;6.50;;
19739;SDS011;10027;51.066;13.768;2022-10-16T03:25:09;8.60;;;6.73;;
19739;SDS011;10027;51.066;13.768;2022-10-16T03:27:36;8.57;;;6.83;;
19739;SDS011;10027;51.066;13.768;2022-10-16T03:30:04;8.07;;;6.60;;
19739;SDS011;10027;51.066;13.768;2022-10-16T03:32:31;8.37;;;6.77;;
19739;SDS011;10027;51.066;13.768;2022-10-16T03:34:58;8.73;;;7.10;;
19739;SDS011;10027;51.066;13.768;2022-10-16T03:37:25;8.13;;;6.93;;
19739;SDS011;10027;51.066;13.768;2022-10-16T03:39:53;7.87;;;6.60;;
19739;SDS011;10027;51.066;13.768;2022-10-16T03:42:20;8.73;;;7.03;;
19739;SDS011;10027;51.066;13.768;2022-10-16T03:44:47;10.43;;;6.93;;
19739;SDS011;10027;51.066;13.768;2022-10-16T03:47:15;10.33;;;7.10;;
19739;SDS011;10027;51.066;13.768;2022-10-16T03:49:46;9.87;;;6.97;;
19739;SDS011;10027;51.066;13.768;2022-10-16T03:52:13;8.87;;;6.77;;
19739;SDS011;10027;51.066;13.768;2022-10-16T03:54:40;9.00;;;7.40;;
19739;SDS011;10027;51.066;13.768;2022-10-16T03:57:07;9.27;;;6.87;;
19739;SDS011;10027;51.066;13.768;2022-10-16T03:59:34;9.37;;;7.50;;
19739;SDS011;10027;51.066;13.768;2022-10-16T04:02:02;13.17;;;7.87;;
19739;SDS011;10027;51.066;13.768;2022-10-16T04:04:29;9.57;;;7.27;;
19739;SDS011;10027;51.066;13.768;2022-10-16T04:06:56;8.63;;;6.90;;
19739;SDS011;10027;51.066;13.768;2022-10-16T04:09:23;9.00;;;7.07;;
19739;SDS011;10027;51.066;13.768;2022-10-16T04:11:50;8.80;;;7.47;;
19739;SDS011;10027;51.066;13.768;2022-10-16T04:14:17;10.03;;;7.43;;
19739;SDS011;10027;51.066;13.768;2022-10-16T04:16:44;8.33;;;7.10;;
19739;SDS011;10027;51.066;13.768;2022-10-16T04:19:11;9.23;;;7.03;;
19739;SDS011;10027;51.066;13.768;2022-10-16T04:21:38;9.17;;;7.47;;
19739;SDS011;10027;51.066;13.768;2022-10-16T04:24:05;9.33;;;7.60;;
19739;SDS011;10027;51.066;13.768;2022-10-16T04:26:32;9.20;;;7.33;;
19739;SDS011;10027;51.066;13.768;2022-10-16T04:28:59;10.53;;;7.77;;
19739;SDS011;10027;51.066;13.768;2022-10-16T04:31:26;9.70;;;7.83;;
19739;SDS011;10027;51.066;13.768;2022-10-16T04:33:53;9.07;;;7.33;;
19739;SDS011;10027;51.066;13.768;2022-10-16T04:36:21;11.67;;;7.63;;
19739;SDS011;10027;51.066;13.768;2022-10-16T04:38:53;9.90;;;7.67;;
19739;SDS011;10027;51.066;13.768;2022-10-16T04:41:20;11.60;;;8.07;;
19739;SDS011;10027;51.066;13.768;2022-10-16T04:43:47;8.90;;;7.53;;
19739;SDS011;10027;51.066;13.768;2022-10-16T04:46:14;8.93;;;7.53;;
19739;SDS011;10027;51.066;13.768;2022-10-16T04:48:41;9.53;;;7.60;;
19739;SDS011;10027;51.066;13.768;2022-10-16T04:51:08;10.07;;;8.10;;
19739;SDS011;10027;51.066;13.768;2022-10-16T04:53:35;11.17;;;8.27;;
19739;SDS011;10027;51.066;13.768;2022-10-16T04:56:03;9.43;;;7.90;;
19739;SDS011;10027;51.066;13.768;2022-10-16T04:58:30;9.97;;;7.63;;
19739;SDS011;10027;51.066;13.768;2022-10-16T05:00:57;9.90;;;7.77;;
19739;SDS011;10027;51.066;13.768;2022-10-16T05:03:24;9.73;;;7.93;;
19739;SDS011;10027;51.066;13.768;2022-10-16T05:05:51;11.07;;;8.07;;
19739;SDS011;10027;51.066;13.768;2022-10-16T05:08:18;9.50;;;7.80;;
19739;SDS011;10027;51.066;13.768;2022-10-16T05:10:45;10.23;;;7.77;;
19739;SDS011;10027;51.066;13.768;2022-10-16T05:13:12;10.70;;;7.63;;
19739;SDS011;10027;51.066;13.768;2022-10-16T05:15:39;9.70;;;8.00;;
19739;SDS011;10027;51.066;13.768;2022-10-16T05:18:06;10.30;;;7.97;;
19739;SDS011;10027;51.066;13.768;2022-10-16T05:20:34;9.23;;;7.57;;
19739;SDS011;10027;51.066;13.768;2022-10-16T05:23:01;10.53;;;7.87;;
19739;SDS011;10027;51.066;13.768;2022-10-16T05:25:28;9.90;;;7.97;;
19739;SDS011;10027;51.066;13.768;2022-10-16T05:27:55;9.37;;;7.40;;
19739;SDS011;10027;51.066;13.768;2022-10-16T05:30:22;9.97;;;7.33;;
19739;SDS011;10027;51.066;13.768;2022-10-16T05:32:49;10.47;;;7.67;;
19739;SDS011;10027;51.066;13.768;2022-10-16T05:35:17;9.70;;;7.43;;
19739;SDS011;10027;51.066;13.768;2022-10-16T05:37:44;9.33;;;7.60;;
19739;SDS011;10027;51.066;13.768;2022-10-16T05:40:12;10.97;;;7.17;;
19739;SDS011;10027;51.066;13.768;2022-10-16T05:42:39;9.20;;;7.70;;
19739;SDS011;10027;51.066;13.768;2022-10-16T05:45:07;9.27;;;7.20;;
19739;SDS011;10027;51.066;13.768;2022-10-16T05:47:35;9.87;;;7.30;;
19739;SDS011;10027;51.066;13.768;2022-10-16T05:50:02;9.57;;;7.53;;
19739;SDS011;10027;51.066;13.768;2022-10-16T05:52:30;8.60;;;7.63;;
19739;SDS011;10027;51.066;13.768;2022-10-16T05:54:57;9.67;;;7.63;;
19739;SDS011;10027;51.066;13.768;2022-10-16T05:57:24;10.30;;;7.40;;
19739;SDS011;10027;51.066;13.768;2022-10-16T05:59:52;9.77;;;7.23;;
19739;SDS011;10027;51.066;13.768;2022-10-16T06:02:19;8.47;;;6.97;;
19739;SDS011;10027;51.066;13.768;2022-10-16T06:04:46;8.33;;;7.10;;
19739;SDS011;10027;51.066;13.768;2022-10-16T06:07:13;9.97;;;7.47;;
19739;SDS011;10027;51.066;13.768;2022-10-16T06:09:40;9.17;;;7.07;;
19739;SDS011;10027;51.066;13.768;2022-10-16T06:12:07;8.80;;;7.13;;
19739;SDS011;10027;51.066;13.768;2022-10-16T06:14:34;9.37;;;7.47;;
19739;SDS011;10027;51.066;13.768;2022-10-16T06:17:01;8.77;;;7.30;;
19739;SDS011;10027;51.066;13.768;2022-10-16T06:19:28;8.27;;;6.93;;
19739;SDS011;10027;51.066;13.768;2022-10-16T06:21:55;10.37;;;7.53;;
19739;SDS011;10027;51.066;13.768;2022-10-16T06:24:24;9.83;;;7.33;;
19739;SDS011;10027;51.066;13.768;2022-10-16T06:26:51;9.73;;;7.20;;
19739;SDS011;10027;51.066;13.768;2022-10-16T06:29:18;8.53;;;7.50;;
19739;SDS011;10027;51.066;13.768;2022-10-16T06:31:45;10.37;;;7.47;;
19739;SDS011;10027;51.066;13.768;2022-10-16T06:34:12;9.93;;;7.83;;
19739;SDS011;10027;51.066;13.768;2022-10-16T06:36:39;8.40;;;7.40;;
19739;SDS011;10027;51.066;13.768;2022-10-16T06:39:07;10.80;;;8.03;;
19739;SDS011;10027;51.066;13.768;2022-10-16T06:41:34;9.77;;;7.80;;
19739;SDS011;10027;51.066;13.768;2022-10-16T06:44:05;8.90;;;7.43;;
19739;SDS011;10027;51.066;13.768;2022-10-16T06:46:33;10.97;;;7.97;;
19739;SDS011;10027;51.066;13.768;2022-10-16T06:49:00;9.83;;;8.07;;
19739;SDS011;10027;51.066;13.768;2022-10-16T06:51:27;13.13;;;8.20;;
19739;SDS011;10027;51.066;13.768;2022-10-16T06:53:55;9.73;;;8.20;;
19739;SDS011;10027;51.066;13.768;2022-10-16T06:56:32;11.97;;;8.63;;
19739;SDS011;10027;51.066;13.768;2022-10-16T06:58:59;10.50;;;8.43;;
19739;SDS011;10027;51.066;13.768;2022-10-16T07:01:27;13.17;;;8.37;;
19739;SDS011;10027;51.066;13.768;2022-10-16T07:03:54;10.73;;;8.73;;
19739;SDS011;10027;51.066;13.768;2022-10-16T07:06:22;12.47;;;9.10;;
19739;SDS011;10027;51.066;13.768;2022-10-16T07:08:49;11.87;;;8.23;;
19739;SDS011;10027;51.066;13.768;2022-10-16T07:11:17;11.50;;;8.80;;
19739;SDS011;10027;51.066;13.768;2022-10-16T07:13:45;11.67;;;9.17;;
19739;SDS011;10027;51.066;13.768;2022-10-16T07:16:21;12.20;;;8.57;;
19739;SDS011;10027;51.066;13.768;2022-10-16T07:18:48;11.77;;;9.07;;
19739;SDS011;10027;51.066;13.768;2022-10-16T07:21:21;10.80;;;8.53;;
19739;SDS011;10027;51.066;13.768;2022-10-16T07:23:52;12.73;;;8.90;;
19739;SDS011;10027;51.066;13.768;2022-10-16T07:26:19;10.90;;;8.87;;
19739;SDS011;10027;51.066;13.768;2022-10-16T07:28:47;12.43;;;9.43;;
19739;SDS011;10027;51.066;13.768;2022-10-16T07:31:15;12.70;;;9.03;;
19739;SDS011;10027;51.066;13.768;2022-10-16T07:33:42;11.20;;;8.73;;
19739;SDS011;10027;51.066;13.768;2022-10-16T07:36:11;10.93;;;8.93;;
19739;SDS011;10027;51.066;13.768;2022-10-16T07:38:41;10.97;;;8.70;;
19739;SDS011;10027;51.066;13.768;2022-10-16T07:41:09;11.87;;;8.70;;
19739;SDS011;10027;51.066;13.768;2022-10-16T07:43:37;10.60;;;8.60;;
19739;SDS011;10027;51.066;13.768;2022-10-16T07:46:04;11.77;;;8.70;;
19739;SDS011;10027;51.066;13.768;2022-10-16T07:48:32;9.73;;;8.37;;
19739;SDS011;10027;51.066;13.768;2022-10-16T07:51:00;11.27;;;8.83;;
19739;SDS011;10027;51.066;13.768;2022-10-16T07:53:27;11.73;;;8.23;;
19739;SDS011;10027;51.066;13.768;2022-10-16T07:55:58;11.60;;;8.70;;
19739;SDS011;10027;51.066;13.768;2022-10-16T07:58:26;10.67;;;8.10;;
19739;SDS011;10027;51.066;13.768;2022-10-16T08:00:54;11.07;;;8.60;;
19739;SDS011;10027;51.066;13.768;2022-10-16T08:03:21;10.53;;;7.97;;
19739;SDS011;10027;51.066;13.768;2022-10-16T08:05:48;11.07;;;8.30;;
19739;SDS011;10027;51.066;13.768;2022-10-16T08:08:16;13.00;;;7.77;;
19739;SDS011;10027;51.066;13.768;2022-10-16T08:10:43;10.67;;;8.00;;
19739;SDS011;10027;51.066;13.768;2022-10-16T08:13:11;12.87;;;8.30;;
19739;SDS011;10027;51.066;13.768;2022-10-16T08:15:44;9.13;;;7.03;;
19739;SDS011;10027;51.066;13.768;2022-10-16T08:18:12;9.13;;;7.80;;
19739;SDS011;10027;51.066;13.768;2022-10-16T08:20:40;8.67;;;6.90;;
19739;SDS011;10027;51.066;13.768;2022-10-16T08:23:08;7.90;;;7.07;;
19739;SDS011;10027;51.066;13.768;2022-10-16T08:25:36;10.13;;;7.00;;
19739;SDS011;10027;51.066;13.768;2022-10-16T08:28:04;8.93;;;7.10;;
19739;SDS011;10027;51.066;13.768;2022-10-16T08:30:31;8.23;;;7.13;;
19739;SDS011;10027;51.066;13.768;2022-10-16T08:32:58;8.53;;;6.87;;
19739;SDS011;10027;51.066;13.768;2022-10-16T08:35:25;8.73;;;6.77;;
19739;SDS011;10027;51.066;13.768;2022-10-16T08:37:53;8.17;;;7.20;;
19739;SDS011;10027;51.066;13.768;2022-10-16T08:40:21;9.80;;;6.50;;
19739;SDS011;10027;51.066;13.768;2022-10-16T08:48:09;6.87;;;5.43;;
19739;SDS011;10027;51.066;13.768;2022-10-16T08:50:38;7.00;;;5.87;;
19739;SDS011;10027;51.066;13.768;2022-10-16T08:53:06;6.20;;;5.47;;
19739;SDS011;10027;51.066;13.768;2022-10-16T08:55:37;6.47;;;5.77;;
19739;SDS011;10027;51.066;13.768;2022-10-16T08:58:14;7.13;;;5.67;;
19739;SDS011;10027;51.066;13.768;2022-10-16T09:00:42;6.10;;;5.30;;
19739;SDS011;10027;51.066;13.768;2022-10-16T09:21:16;7.20;;;5.73;;
19739;SDS011;10027;51.066;13.768;2022-10-16T09:23:45;7.23;;;6.50;;
19739;SDS011;10027;51.066;13.768;2022-10-16T09:26:13;7.30;;;6.13;;
19739;SDS011;10027;51.066;13.768;2022-10-16T09:28:41;6.90;;;6.20;;
19739;SDS011;10027;51.066;13.768;2022-10-16T09:31:15;7.30;;;6.40;;
19739;SDS011;10027;51.066;13.768;2022-10-16T09:33:44;8.77;;;5.90;;
19739;SDS011;10027;51.066;13.768;2022-10-16T09:36:12;9.07;;;5.73;;
19739;SDS011;10027;51.066;13.768;2022-10-16T09:38:40;8.10;;;6.07;;
19739;SDS011;10027;51.066;13.768;2022-10-16T09:43:40;7.10;;;5.10;;
19739;SDS011;10027;51.066;13.768;2022-10-16T09:46:19;5.80;;;5.20;;
19739;SDS011;10027;51.066;13.768;2022-10-16T09:48:48;5.83;;;5.00;;
19739;SDS011;10027;51.066;13.768;2022-10-16T09:51:18;5.37;;;4.80;;
19739;SDS011;10027;51.066;13.768;2022-10-16T09:53:46;6.57;;;5.10;;
19739;SDS011;10027;51.066;13.768;2022-10-16T09:56:29;6.00;;;5.10;;
19739;SDS011;10027;51.066;13.768;2022-10-16T09:59:45;6.20;;;5.40;;
19739;SDS011;10027;51.066;13.768;2022-10-16T10:01:54;4.13;;;3.73;;
19739;SDS011;10027;51.066;13.768;2022-10-16T10:04:24;4.53;;;4.00;;
19739;SDS011;10027;51.066;13.768;2022-10-16T10:06:52;4.53;;;3.83;;
19739;SDS011;10027;51.066;13.768;2022-10-16T10:09:26;5.17;;;3.60;;
19739;SDS011;10027;51.066;13.768;2022-10-16T10:14:23;3.97;;;3.53;;
19739;SDS011;10027;51.066;13.768;2022-10-16T10:16:52;3.20;;;2.90;;
19739;SDS011;10027;51.066;13.768;2022-10-16T10:19:20;4.10;;;3.20;;
19739;SDS011;10027;51.066;13.768;2022-10-16T10:21:48;3.30;;;3.00;;
19739;SDS011;10027;51.066;13.768;2022-10-16T10:24:16;3.27;;;2.97;;
19739;SDS011;10027;51.066;13.768;2022-10-16T10:26:56;5.90;;;3.17;;
19739;SDS011;10027;51.066;13.768;2022-10-16T10:29:35;3.37;;;2.63;;
19739;SDS011;10027;51.066;13.768;2022-10-16T10:39:40;3.50;;;2.57;;
19739;SDS011;10027;51.066;13.768;2022-10-16T10:57:51;0.77;;;0.63;;
19739;SDS011;10027;51.066;13.768;2022-10-16T11:00:31;1.30;;;0.40;;
19739;SDS011;10027;51.066;13.768;2022-10-16T11:03:12;0.50;;;0.50;;
19739;SDS011;10027;51.066;13.768;2022-10-16T11:05:55;0.40;;;0.40;;
19739;SDS011;10027;51.066;13.768;2022-10-16T11:11:00;1.40;;;0.50;;
19739;SDS011;10027;51.066;13.768;2022-10-16T11:16:48;1.83;;;0.47;;
19739;SDS011;10027;51.066;13.768;2022-10-16T11:21:25;0.50;;;0.50;;
19739;SDS011;10027;51.066;13.768;2022-10-16T11:24:00;0.40;;;0.40;;
19739;SDS011;10027;51.066;13.768;2022-10-16T11:26:34;1.00;;;0.40;;
19739;SDS011;10027;51.066;13.768;2022-10-16T11:29:02;0.60;;;0.43;;
19739;SDS011;10027;51.066;13.768;2022-10-16T11:31:44;0.83;;;0.37;;
19739;SDS011;10027;51.066;13.768;2022-10-16T11:36:49;0.50;;;0.50;;
19739;SDS011;10027;51.066;13.768;2022-10-16T11:39:20;0.57;;;0.40;;
19739;SDS011;10027;51.066;13.768;2022-10-16T11:41:48;1.20;;;0.80;;
19739;SDS011;10027;51.066;13.768;2022-10-16T11:44:20;0.80;;;0.40;;
19739;SDS011;10027;51.066;13.768;2022-10-16T11:46:55;0.40;;;0.40;;
19739;SDS011;10027;51.066;13.768;2022-10-16T11:49:45;0.50;;;0.40;;
19739;SDS011;10027;51.066;13.768;2022-10-16T11:52:16;0.40;;;0.40;;
19739;SDS011;10027;51.066;13.768;2022-10-16T11:54:56;1.77;;;0.40;;
19739;SDS011;10027;51.066;13.768;2022-10-16T11:57:30;2.23;;;0.60;;
19739;SDS011;10027;51.066;13.768;2022-10-16T12:00:00;1.00;;;0.57;;
19739;SDS011;10027;51.066;13.768;2022-10-16T12:02:33;2.07;;;0.43;;
19739;SDS011;10027;51.066;13.768;2022-10-16T12:08:08;1.40;;;0.40;;
19739;SDS011;10027;51.066;13.768;2022-10-16T12:10:37;0.40;;;0.40;;
19739;SDS011;10027;51.066;13.768;2022-10-16T12:16:05;1.53;;;0.50;;
19739;SDS011;10027;51.066;13.768;2022-10-16T12:18:32;0.80;;;0.50;;
19739;SDS011;10027;51.066;13.768;2022-10-16T12:20:59;0.63;;;0.60;;
19739;SDS011;10027;51.066;13.768;2022-10-16T12:23:32;1.47;;;0.50;;
19739;SDS011;10027;51.066;13.768;2022-10-16T12:26:00;0.60;;;0.50;;
19739;SDS011;10027;51.066;13.768;2022-10-16T12:28:29;0.87;;;0.53;;
19739;SDS011;10027;51.066;13.768;2022-10-16T12:30:59;0.87;;;0.50;;
19739;SDS011;10027;51.066;13.768;2022-10-16T12:33:30;0.50;;;0.50;;
19739;SDS011;10027;51.066;13.768;2022-10-16T12:35:58;1.33;;;0.40;;
19739;SDS011;10027;51.066;13.768;2022-10-16T12:38:27;0.40;;;0.40;;
19739;SDS011;10027;51.066;13.768;2022-10-16T12:40:56;0.50;;;0.50;;
19739;SDS011;10027;51.066;13.768;2022-10-16T12:43:26;0.33;;;0.33;;
19739;SDS011;10027;51.066;13.768;2022-10-16T12:45:59;0.70;;;0.50;;
19739;SDS011;10027;51.066;13.768;2022-10-16T12:48:26;0.77;;;0.50;;
19739;SDS011;10027;51.066;13.768;2022-10-16T12:51:24;0.50;;;0.50;;
19739;SDS011;10027;51.066;13.768;2022-10-16T12:56:43;0.50;;;0.50;;
19739;SDS011;10027;51.066;13.768;2022-10-16T13:07:15;1.70;;;0.50;;
19739;SDS011;10027;51.066;13.768;2022-10-16T13:12:27;0.40;;;0.40;;
19739;SDS011;10027;51.066;13.768;2022-10-16T13:32:44;0.77;;;0.47;;
19739;SDS011;10027;51.066;13.768;2022-10-16T13:35:25;1.33;;;0.50;;
19739;SDS011;10027;51.066;13.768;2022-10-16T13:40:32;1.00;;;0.60;;
19739;SDS011;10027;51.066;13.768;2022-10-16T13:43:00;1.30;;;0.60;;
19739;SDS011;10027;51.066;13.768;2022-10-16T13:45:28;2.10;;;0.60;;
19739;SDS011;10027;51.066;13.768;2022-10-16T13:48:04;0.70;;;0.70;;
19739;SDS011;10027;51.066;13.768;2022-10-16T13:50:31;2.20;;;0.90;;
19739;SDS011;10027;51.066;13.768;2022-10-16T13:53:13;1.07;;;0.60;;
19739;SDS011;10027;51.066;13.768;2022-10-16T13:55:40;1.10;;;0.90;;
19739;SDS011;10027;51.066;13.768;2022-10-16T13:58:08;1.63;;;0.90;;
19739;SDS011;10027;51.066;13.768;2022-10-16T14:00:38;0.77;;;0.60;;
19739;SDS011;10027;51.066;13.768;2022-10-16T14:03:06;1.00;;;0.80;;
19739;SDS011;10027;51.066;13.768;2022-10-16T14:05:34;0.80;;;0.70;;
19739;SDS011;10027;51.066;13.768;2022-10-16T14:08:01;1.10;;;0.90;;
19739;SDS011;10027;51.066;13.768;2022-10-16T14:10:29;3.13;;;1.20;;
19739;SDS011;10027;51.066;13.768;2022-10-16T14:13:04;0.90;;;0.67;;
19739;SDS011;10027;51.066;13.768;2022-10-16T14:15:33;0.97;;;0.77;;
19739;SDS011;10027;51.066;13.768;2022-10-16T14:18:01;1.03;;;0.80;;
19739;SDS011;10027;51.066;13.768;2022-10-16T14:20:29;0.70;;;0.70;;
19739;SDS011;10027;51.066;13.768;2022-10-16T14:22:59;0.90;;;0.90;;
19739;SDS011;10027;51.066;13.768;2022-10-16T14:25:27;1.13;;;0.90;;
19739;SDS011;10027;51.066;13.768;2022-10-16T14:28:04;1.10;;;0.93;;
19739;SDS011;10027;51.066;13.768;2022-10-16T14:30:33;1.40;;;1.00;;
19739;SDS011;10027;51.066;13.768;2022-10-16T14:33:05;2.93;;;1.20;;
19739;SDS011;10027;51.066;13.768;2022-10-16T14:35:34;1.20;;;1.10;;
19739;SDS011;10027;51.066;13.768;2022-10-16T14:38:02;1.07;;;0.93;;
19739;SDS011;10027;51.066;13.768;2022-10-16T14:40:30;2.10;;;1.07;;
19739;SDS011;10027;51.066;13.768;2022-10-16T14:42:58;1.83;;;1.20;;
19739;SDS011;10027;51.066;13.768;2022-10-16T14:45:27;2.13;;;1.20;;
19739;SDS011;10027;51.066;13.768;2022-10-16T14:47:56;1.87;;;1.00;;
19739;SDS011;10027;51.066;13.768;2022-10-16T14:50:24;6.03;;;1.27;;
19739;SDS011;10027;51.066;13.768;2022-10-16T14:52:51;2.23;;;1.10;;
19739;SDS011;10027;51.066;13.768;2022-10-16T14:55:18;1.83;;;1.20;;
19739;SDS011;10027;51.066;13.768;2022-10-16T14:57:46;2.23;;;1.10;;
19739;SDS011;10027;51.066;13.768;2022-10-16T15:00:18;2.63;;;1.23;;
19739;SDS011;10027;51.066;13.768;2022-10-16T15:02:45;1.50;;;1.40;;
19739;SDS011;10027;51.066;13.768;2022-10-16T15:05:15;1.33;;;1.17;;
19739;SDS011;10027;51.066;13.768;2022-10-16T15:07:42;1.97;;;1.23;;
19739;SDS011;10027;51.066;13.768;2022-10-16T15:10:09;1.80;;;1.00;;
19739;SDS011;10027;51.066;13.768;2022-10-16T15:12:37;1.20;;;1.10;;
19739;SDS011;10027;51.066;13.768;2022-10-16T15:17:52;2.67;;;1.20;;
19739;SDS011;10027;51.066;13.768;2022-10-16T15:20:25;3.33;;;1.30;;
19739;SDS011;10027;51.066;13.768;2022-10-16T15:22:53;1.87;;;1.03;;
19739;SDS011;10027;51.066;13.768;2022-10-16T15:27:56;2.20;;;1.30;;
19739;SDS011;10027;51.066;13.768;2022-10-16T15:30:23;1.87;;;1.17;;
19739;SDS011;10027;51.066;13.768;2022-10-16T15:32:51;3.57;;;1.20;;
19739;SDS011;10027;51.066;13.768;2022-10-16T15:35:18;2.50;;;1.47;;
19739;SDS011;10027;51.066;13.768;2022-10-16T15:37:48;1.63;;;1.40;;
19739;SDS011;10027;51.066;13.768;2022-10-16T15:40:16;1.40;;;1.30;;
19739;SDS011;10027;51.066;13.768;2022-10-16T15:42:44;3.27;;;1.50;;
19739;SDS011;10027;51.066;13.768;2022-10-16T15:45:11;1.77;;;1.20;;
19739;SDS011;10027;51.066;13.768;2022-10-16T15:47:39;2.77;;;1.60;;
19739;SDS011;10027;51.066;13.768;2022-10-16T15:50:11;2.47;;;1.70;;
19739;SDS011;10027;51.066;13.768;2022-10-16T15:52:39;4.80;;;1.93;;
19739;SDS011;10027;51.066;13.768;2022-10-16T15:55:09;3.60;;;1.90;;
19739;SDS011;10027;51.066;13.768;2022-10-16T15:57:37;3.10;;;2.03;;
19739;SDS011;10027;51.066;13.768;2022-10-16T16:00:06;6.33;;;1.90;;
19739;SDS011;10027;51.066;13.768;2022-10-16T16:02:36;3.07;;;1.77;;
19739;SDS011;10027;51.066;13.768;2022-10-16T16:05:03;3.50;;;1.80;;
19739;SDS011;10027;51.066;13.768;2022-10-16T16:07:33;2.63;;;1.53;;
19739;SDS011;10027;51.066;13.768;2022-10-16T16:10:00;2.30;;;1.50;;
19739;SDS011;10027;51.066;13.768;2022-10-16T16:12:27;3.03;;;1.57;;
19739;SDS011;10027;51.066;13.768;2022-10-16T16:14:55;3.13;;;1.20;;
19739;SDS011;10027;51.066;13.768;2022-10-16T16:17:24;2.17;;;1.50;;
19739;SDS011;10027;51.066;13.768;2022-10-16T16:19:51;3.20;;;1.53;;
19739;SDS011;10027;51.066;13.768;2022-10-16T16:22:18;2.57;;;1.50;;
19739;SDS011;10027;51.066;13.768;2022-10-16T16:24:45;1.70;;;1.47;;
19739;SDS011;10027;51.066;13.768;2022-10-16T16:27:13;3.33;;;1.60;;
19739;SDS011;10027;51.066;13.768;2022-10-16T16:29:40;1.47;;;1.37;;
19739;SDS011;10027;51.066;13.768;2022-10-16T16:32:07;1.90;;;1.50;;
19739;SDS011;10027;51.066;13.768;2022-10-16T16:34:34;2.20;;;1.50;;
19739;SDS011;10027;51.066;13.768;2022-10-16T16:37:02;2.60;;;1.40;;
19739;SDS011;10027;51.066;13.768;2022-10-16T16:39:29;2.97;;;1.53;;
19739;SDS011;10027;51.066;13.768;2022-10-16T16:41:56;2.30;;;1.70;;